Grayson, Georgia
Current Conditions -  °F | °C
As of 5:35 AM on Sunday 26 Oct 2014 (Local Time) from KWDR Reporting Station
Clear Clear  
Wind Chill: 61°   Ceiling: Unl
Heat Index: 61°   Visibility: 10mi
Dew Point: 58°   Wind: 7mph
Humidity: 89%   Direction: 320°NW
Pressure: 29.99"   Gusts: NA
Location:  33.89°N, 83.96°W
Report Text: KWDR 260935Z AUTO 32006KT 10SM CLR 16/14 A2999 RMK AO2 T01600142
Loading
Personal Weather Stations






























Interactive Weather Map
Tropical Storm Tracking
New forecast layout! Learn more

10-Day Weather Forecast

Advertisements
Track Severe Weather on mobile